Date,TemperatureHighF,TemperatureAvgF,TemperatureLowF,DewpointHighF,DewpointAvgF,DewpointLowF,HumidityHigh,HumidityAvg,HumidityLow,PressureMaxIn,PressureMinIn,WindSpeedMaxMPH,WindSpeedAvgMPH,GustSpeedMaxMPH,PrecipitationSumIn
2014-1-1,32.0,27.2,24.8,15.8,10.3,5.0,55,49,40,30.34,30.22,21,11,0,0.00
2014-1-2,32.0,25.9,17.6,26.6,22.6,15.8,100,88,64,30.16,29.63,29,19,0,0.00
2014-1-3,19.4,12.9,10.4,15.8,4.9,-5.8,93,73,41,30.44,29.60,36,19,0,0.00
2014-1-4,30.2,20.4,8.6,19.4,5.0,-4.0,68,53,36,30.49,30.24,17,7,0,0.00
2014-1-5,50.0,31.8,24.8,50.0,29.3,19.4,100,91,64,30.25,29.69,15,4,0,0.00
2014-1-6,55.4,44.3,23.0,55.4,36.4,5.0,100,76,40,29.69,29.31,37,20,0,0.00
2014-1-7,23.0,9.2,5.0,3.2,-11.6,-18.4,48,39,31,30.35,29.65,40,24,0,0.00
2014-1-8,23.0,16.4,8.6,3.2,-1.8,-5.8,57,45,36,30.51,30.35,23,13,0,0.00
2014-1-9,33.8,27.7,23.0,15.8,10.1,1.4,59,48,35,30.58,30.44,17,5,0,0.00
2014-1-10,35.6,32.2,28.4,35.6,27.9,15.8,100,85,59,30.54,30.15,9,3,0,0.00
2014-1-11,55.4,48.7,35.6,55.4,48.7,35.6,100,100,94,30.15,29.23,28,13,0,0.00
2014-1-12,53.6,45.5,39.2,51.8,29.6,24.8,94,54,43,30.00,29.30,34,18,0,0.00
2014-1-13,50.0,43.7,35.6,39.2,33.7,26.6,81,68,57,30.07,29.82,24,9,0,0.00
2014-1-14,48.2,46.9,44.6,48.2,44.2,37.4,100,90,71,29.82,29.58,17,6,0,0.00
2014-1-15,46.4,41.5,35.6,42.8,39.1,35.6,100,91,76,29.93,29.76,13,4,0,0.00
2014-1-16,42.8,39.0,35.6,39.2,31.4,26.6,100,75,65,29.88,29.77,21,8,0,0.00
2014-1-17,44.6,38.9,33.8,35.6,28.2,19.4,87,66,52,29.91,29.81,15,5,0,0.00
2014-1-18,39.2,36.0,30.2,37.4,30.1,17.6,100,80,56,29.81,29.59,29,14,0,0.00
2014-1-19,39.2,31.8,26.6,24.8,18.6,12.2,69,58,51,29.79,29.59,31,16,0,0.00
2014-1-20,42.8,41.3,39.2,28.4,24.6,21.2,65,52,49,29.59,29.52,22,8,0,0.00
2014-1-21,42.8,20.9,10.4,24.8,13.0,5.0,93,76,40,29.96,29.52,28,14,0,0.00
2014-1-22,19.4,12.2,6.8,10.4,-1.9,-7.6,92,55,35,29.96,29.73,39,20,0,0.00
2014-1-23,23.0,14.7,8.6,5.0,-0.4,-5.8,62,52,39,30.24,29.96,24,13,0,0.00
2014-1-24,21.2,16.2,10.4,5.0,-1.4,-5.8,57,47,30,30.34,30.05,31,17,0,0.00
2014-1-25,28.4,25.1,19.4,24.8,13.6,3.2,93,63,46,30.05,29.39,29,18,0,0.00
2014-1-26,32.0,23.1,17.6,19.4,5.7,-5.8,74,49,33,29.85,29.41,33,16,0,0.00
2014-1-27,44.6,33.6,21.2,30.2,16.7,-7.6,87,53,24,30.03,29.54,39,13,0,0.00
2014-1-28,21.2,17.6,14.0,-2.2,-7.6,-13.0,45,33,23,30.33,30.03,33,13,0,0.00
2014-1-29,24.8,19.1,14.0,12.2,0.6,-7.6,86,48,26,30.25,30.02,31,13,0,0.00
2014-1-30,30.2,23.9,17.6,19.4,4.7,-2.2,69,45,32,30.39,30.14,15,8,0,0.00
2014-1-31,41.0,34.2,26.6,17.6,12.1,6.8,59,41,31,30.16,30.02,20,10,0,0.00
2014-2-1,46.4,38.8,33.8,30.2,23.3,15.8,75,55,37,30.26,29.96,15,3,0,0.00
2014-2-2,55.4,43.3,30.2,39.2,34.2,28.4,100,73,44,30.01,29.81,17,6,0,0.00
2014-2-3,42.8,33.0,28.4,35.6,31.3,23.0,100,94,76,30.25,29.99,20,8,0,0.00
2014-2-4,37.4,30.7,24.8,28.4,22.5,17.6,87,72,56,30.40,30.19,13,4,0,0.00
2014-2-5,33.8,31.8,30.2,33.8,31.6,26.6,100,99,80,30.19,29.57,21,9,0,0.00
2014-2-6,32.0,27.9,23.0,32.0,18.4,14.0,100,69,48,30.22,29.72,22,11,0,0.00
2014-2-7,33.8,29.5,24.8,17.6,14.4,10.4,64,54,41,30.26,30.13,25,13,0,0.00
2014-2-8,30.2,26.8,23.0,12.2,4.4,-4.0,51,39,29,30.29,30.09,20,9,0,0.00
2014-2-9,32.0,26.3,21.2,26.6,11.8,1.4,100,57,36,30.15,29.94,20,8,0,0.00
2014-2-10,30.2,25.6,21.2,23.0,10.6,5.0,86,54,40,30.23,29.93,30,18,0,0.00
2014-2-11,26.6,21.9,17.6,10.4,4.9,1.4,63,49,34,30.43,30.23,26,15,0,0.00
2014-2-12,24.8,19.8,14.0,17.6,5.6,-0.4,74,55,39,30.53,30.24,15,8,0,0.00
2014-2-13,35.6,32.0,24.8,35.6,31.4,17.6,100,98,74,30.24,28.94,36,20,0,0.00
2014-2-14,41.0,37.0,30.2,33.8,27.2,23.0,100,70,49,29.70,28.94,36,19,0,0.00
2014-2-15,37.4,33.5,28.4,32.0,27.6,14.0,100,80,55,29.72,29.49,39,14,0,0.00
2014-2-16,30.2,25.6,21.2,15.8,10.5,6.8,69,53,40,30.04,29.67,37,18,0,0.00
2014-2-17,35.6,25.7,19.4,14.0,4.0,-4.0,63,42,22,30.30,30.04,28,11,0,0.00
2014-2-18,41.0,32.5,24.8,35.6,24.0,6.8,100,74,40,30.28,29.86,26,9,0,0.00
2014-2-19,44.6,37.5,30.2,41.0,32.4,23.0,100,82,60,30.04,29.61,17,6,0,0.00
2014-2-20,53.6,43.0,35.6,37.4,28.7,23.0,100,59,33,30.15,29.89,21,8,0,0.00
2014-2-21,48.2,39.0,35.6,48.2,37.7,35.6,100,96,76,29.96,29.57,22,11,0,0.00
2014-2-22,55.4,46.2,37.4,35.6,26.8,17.6,87,51,23,29.97,29.84,25,10,0,0.00
2014-2-23,55.4,48.5,41.0,32.0,28.7,24.8,70,48,31,29.94,29.75,28,6,0,0.00
2014-2-24,44.6,36.3,28.4,32.0,13.4,5.0,66,40,28,30.02,29.72,34,20,0,0.00
2014-2-25,33.8,28.5,24.8,15.8,9.5,5.0,54,45,35,30.03,29.85,29,14,0,0.00
2014-2-26,32.0,27.0,21.2,26.6,8.8,-7.6,93,49,24,29.92,29.74,25,12,0,0.00
2014-2-27,32.0,24.5,14.0,14.0,2.1,-16.6,58,39,23,30.05,29.54,41,17,0,0.00
2014-2-28,26.6,17.6,10.4,1.4,-7.3,-16.6,44,33,24,30.39,30.05,29,12,0,0.00
2014-3-1,39.2,29.9,21.2,30.2,12.5,-0.4,75,49,35,30.38,30.08,17,6,0,0.00
2014-3-2,41.0,38.2,35.6,23.0,20.5,17.6,60,49,45,30.08,29.92,15,9,0,0.00
2014-3-3,39.2,23.1,19.4,21.2,5.5,-5.8,86,49,33,30.29,29.92,24,13,0,0.00
2014-3-4,30.2,22.3,12.2,12.2,2.2,-5.8,53,42,27,30.38,30.18,15,7,0,0.00
2014-3-5,37.4,31.6,26.6,17.6,9.8,3.2,64,41,28,30.38,30.12,22,6,0,0.00
2014-3-6,30.2,23.9,15.8,12.2,3.2,-5.8,55,43,21,30.56,30.39,20,10,0,0.00
2014-3-7,37.4,31.3,24.8,32.0,23.5,10.4,87,73,54,30.44,29.84,21,10,0,0.00
2014-3-8,57.2,46.0,35.6,32.0,28.2,24.8,87,53,31,29.84,29.65,26,12,0,0.00
2014-3-9,44.6,38.3,35.6,28.4,18.8,15.8,61,45,41,29.93,29.80,23,16,0,0.00
2014-3-10,51.8,43.1,37.4,33.8,24.5,12.2,75,49,33,29.93,29.54,21,9,0,0.00
2014-3-11,68.0,50.8,42.8,35.6,31.4,26.6,70,50,23,29.61,29.47,24,8,0,0.00
2014-3-12,53.6,47.5,37.4,46.4,40.2,32.0,87,77,50,29.59,29.01,41,9,0,0.00
2014-3-13,51.8,24.3,17.6,46.4,3.4,-4.0,82,43,25,30.02,29.07,56,31,0,0.00
2014-3-14,51.8,33.2,21.2,46.4,12.7,-4.0,82,44,31,30.16,29.19,29,13,0,0.00
2014-3-15,57.2,50.2,39.2,33.8,26.6,19.4,76,43,23,29.91,29.66,39,16,0,0.00
2014-3-16,46.4,35.0,30.2,23.0,8.0,1.4,48,33,22,30.12,29.91,38,18,0,0.00
2014-3-17,33.8,28.8,23.0,12.2,3.8,-5.8,44,35,24,30.08,29.96,20,9,0,0.00
2014-3-18,39.2,32.7,26.6,24.8,12.1,1.4,70,45,21,30.24,30.06,24,10,0,0.00
2014-3-19,42.8,36.5,32.0,41.0,32.0,24.8,100,84,70,30.26,29.81,22,9,0,0.00
2014-3-20,53.6,46.3,39.2,42.8,31.7,19.4,100,63,30,29.82,29.62,36,17,0,0.00
2014-3-21,51.8,44.7,39.2,23.0,18.6,15.8,46,36,26,29.98,29.81,32,18,0,0.00
2014-3-22,64.4,47.9,37.4,35.6,27.3,19.4,70,48,22,29.99,29.63,37,10,0,0.00
2014-3-23,42.8,38.7,28.4,24.8,15.3,3.2,53,40,21,30.05,29.89,32,17,0,0.00
2014-3-24,35.6,28.3,23.0,6.8,3.4,-0.4,50,36,23,30.18,30.01,30,16,0,0.00
2014-3-25,39.2,32.8,26.6,17.6,10.4,3.2,52,40,26,30.11,29.83,18,6,0,0.00
2014-3-26,35.6,32.7,24.8,17.6,7.8,-2.2,52,36,23,30.16,29.66,48,26,0,0.00
2014-3-27,41.0,32.1,23.0,24.8,11.0,1.4,56,43,24,30.33,30.15,33,15,0,0.00
2014-3-28,53.6,47.0,37.4,48.2,39.3,19.4,88,75,48,30.20,29.87,21,7,0,0.00
2014-3-29,57.2,47.0,42.8,50.0,43.8,41.0,100,89,71,30.10,29.63,32,10,0,0.00
2014-3-30,48.2,45.0,41.0,46.4,43.6,37.4,100,95,82,29.63,29.38,32,15,0,0.00
2014-3-31,57.2,44.1,35.6,37.4,32.6,24.8,93,67,41,29.99,29.59,32,18,0,0.00
2014-4-1,60.8,47.0,39.2,35.6,28.4,24.8,66,50,29,30.04,29.87,23,10,0,0.00
2014-4-2,53.6,45.9,41.0,44.6,39.9,32.0,93,80,61,30.07,29.96,13,4,0,0.00
2014-4-3,64.4,52.3,42.8,42.8,31.8,23.0,93,51,21,30.04,29.89,15,6,0,0.00
2014-4-4,46.4,42.2,39.2,42.8,38.3,33.8,100,86,66,30.01,29.68,24,11,0,0.00
2014-4-5,55.4,47.0,39.2,42.8,32.1,21.2,100,62,33,29.99,29.64,44,18,0,0.00
2014-4-6,42.8,39.1,37.4,23.0,22.8,21.2,56,52,45,30.11,29.99,25,17,0,0.00
2014-4-7,51.8,44.4,39.2,42.8,35.7,19.4,100,74,30,30.13,29.72,23,10,0,0.00
2014-4-8,64.4,53.0,42.8,57.2,43.2,32.0,100,75,36,29.72,29.28,33,12,0,0.00
2014-4-9,60.8,52.8,46.4,35.6,27.3,12.2,62,40,22,29.94,29.53,41,17,0,0.00
2014-4-10,55.4,50.2,41.0,39.2,24.1,10.4,62,38,22,30.11,29.94,30,13,0,0.00
2014-4-11,73.4,61.1,51.8,50.0,42.1,35.6,68,51,33,29.95,29.81,23,9,0,0.00
2014-4-12,71.6,59.4,51.8,51.8,40.3,26.6,88,54,19,30.11,29.90,24,9,0,0.00
2014-4-13,71.6,59.9,50.0,55.4,48.7,39.2,82,67,49,30.12,29.85,34,9,0,0.00
2014-4-14,71.6,60.8,53.6,57.2,53.2,50.0,94,77,53,29.93,29.75,33,14,0,0.00
2014-4-15,59.0,54.2,35.6,59.0,53.3,33.8,100,97,87,29.83,29.41,47,22,0,0.00
2014-4-16,48.2,39.6,32.0,35.6,18.6,10.4,100,46,22,30.50,29.83,36,17,0,0.00
2014-4-17,48.2,41.0,35.6,33.8,24.8,14.0,70,53,39,30.65,30.50,24,11,0,0.00
2014-4-18,46.4,40.8,35.6,37.4,30.4,26.6,81,67,57,30.54,30.19,15,6,0,0.00
2014-4-19,68.0,54.7,42.8,39.2,29.7,19.4,87,46,16,30.26,30.10,22,9,0,0.00
2014-4-20,57.2,50.6,44.6,39.2,29.2,23.0,76,45,29,30.39,30.25,18,10,0,0.00
2014-4-21,64.4,51.7,41.0,42.8,33.0,19.4,81,52,19,30.26,29.80,16,5,0,0.00
2014-4-22,66.2,54.4,50.0,48.2,45.5,42.8,87,73,49,29.80,29.51,23,8,0,0.00
2014-4-23,60.8,52.1,46.4,35.6,31.8,28.4,54,46,36,29.73,29.48,48,31,0,0.00
2014-4-24,62.6,52.2,42.8,32.0,15.7,8.6,57,27,12,29.93,29.73,37,22,0,0.00
2014-4-25,62.6,52.6,44.6,41.0,23.7,15.8,67,34,22,29.95,29.70,23,10,0,0.00
2014-4-26,64.4,52.5,44.6,50.0,44.6,35.6,100,78,34,29.78,29.59,26,10,0,0.00
2014-4-27,59.0,53.2,48.2,42.8,34.4,30.2,82,50,36,30.03,29.78,26,15,0,0.00
2014-4-28,51.8,48.3,46.4,37.4,35.7,33.8,66,62,54,30.03,29.99,17,8,0,0.00
2014-4-29,50.0,47.6,42.8,41.0,39.1,35.6,87,73,62,30.35,30.02,26,13,0,0.00
2014-4-30,48.2,44.8,42.8,48.2,43.8,37.4,100,96,81,30.33,29.97,20,12,0,0.00
2014-5-1,78.8,62.9,48.2,64.4,56.0,46.4,100,82,32,29.97,29.54,20,8,0,0.00
2014-5-2,68.0,62.8,55.4,55.4,40.1,30.2,77,47,26,29.75,29.60,29,11,0,0.00
2014-5-3,68.0,60.8,53.6,53.6,40.0,33.8,88,48,32,29.79,29.63,26,9,0,0.00
2014-5-4,64.4,58.9,55.4,50.0,37.4,23.0,77,47,23,29.69,29.52,37,19,0,0.00
2014-5-5,69.8,59.5,51.8,37.4,30.1,19.4,58,36,16,29.79,29.68,36,19,0,0.00
2014-5-6,69.8,60.8,53.6,37.4,29.5,23.0,51,32,20,29.96,29.75,25,10,0,0.00
2014-5-7,59.0,54.8,51.8,28.4,27.7,24.8,41,36,29,30.09,29.96,12,7,0,0.00
2014-5-13,66.2,57.8,53.6,48.2,45.1,41.0,82,64,43,30.20,30.09,14,9,0,0.00
2014-5-14,69.8,57.4,51.8,57.2,50.7,44.6,100,79,56,30.22,30.12,18,7,0,0.00
2014-5-15,75.2,63.8,55.4,68.0,61.8,53.6,100,94,73,30.15,29.98,25,10,0,0.00
2014-5-16,71.6,67.9,62.6,68.0,65.7,60.8,100,93,83,29.98,29.68,31,19,0,0.00
2014-5-17,71.6,62.9,55.4,59.0,43.8,35.6,94,54,28,30.00,29.73,23,12,0,0.00
2014-5-18,68.0,60.6,53.6,42.8,35.2,30.2,59,40,28,30.08,29.99,24,11,0,0.00
2014-5-19,71.6,62.3,51.8,46.4,32.9,26.6,59,34,21,30.11,29.93,31,12,0,0.00
2014-5-20,80.6,69.4,57.2,42.8,35.5,26.6,51,32,15,30.02,29.82,22,12,0,0.00
2014-5-21,77.0,70.7,64.4,53.6,46.3,35.6,68,43,27,29.87,29.77,17,7,0,0.00
2014-5-22,64.4,61.4,59.0,60.8,58.4,51.8,100,90,64,29.79,29.70,13,4,0,0.00
2014-5-23,71.6,60.8,57.2,60.8,57.6,53.6,100,90,64,29.85,29.73,16,5,0,0.00
2014-5-24,71.6,62.1,57.2,59.0,55.8,51.8,100,81,53,29.98,29.81,12,5,0,0.00
2014-5-25,82.4,68.4,55.4,59.0,51.6,37.4,100,62,21,29.98,29.87,17,5,0,0.00
2014-5-26,86.0,76.8,62.6,57.2,48.6,41.0,82,40,22,29.94,29.74,20,8,0,0.00
2014-5-27,87.8,79.5,60.8,64.4,55.5,50.0,88,45,29,29.77,29.61,22,8,0,0.00
2014-5-28,60.8,57.5,53.6,59.0,52.9,46.4,94,85,72,30.08,29.70,23,8,0,0.00
2014-5-29,64.4,56.8,51.8,48.2,44.2,39.2,77,64,51,30.13,30.04,18,7,0,0.00
2014-5-30,78.8,65.6,57.2,57.2,47.7,39.2,82,54,32,30.06,29.85,22,6,0,0.00
2014-5-31,71.6,64.6,59.0,57.2,48.7,42.8,77,57,38,30.20,29.96,24,10,0,0.00
2014-6-1,78.8,67.2,57.2,46.4,40.4,30.2,67,41,19,30.24,30.12,20,7,0,0.00
2014-6-2,78.8,71.0,60.8,59.0,48.7,39.2,64,46,36,30.16,29.88,24,9,0,0.00
2014-6-3,87.8,75.8,64.4,68.0,60.1,55.4,94,60,40,29.91,29.67,20,6,0,0.00
2014-6-4,78.8,69.1,62.6,66.2,62.6,60.8,100,81,57,29.74,29.61,15,6,0,0.00
2014-6-5,77.0,67.6,62.6,64.4,59.4,46.4,100,78,41,29.68,29.52,22,11,0,0.00
2014-6-6,78.8,69.0,60.8,51.8,48.6,46.4,63,49,34,29.82,29.68,22,13,0,0.00
2014-6-7,84.2,73.4,62.6,59.0,51.7,46.4,68,48,28,29.87,29.77,16,6,0,0.00
2014-6-8,87.8,76.7,66.2,60.8,54.8,46.4,73,49,25,29.83,29.73,21,6,0,0.00
2014-6-9,73.4,66.2,62.6,68.0,62.5,51.8,100,89,47,29.86,29.78,17,5,0,0.00
2014-6-10,77.0,69.0,64.4,69.8,66.5,62.6,100,92,78,29.87,29.80,13,6,0,0.00
2014-6-11,69.8,64.9,60.8,68.0,60.1,57.2,100,85,73,30.01,29.87,21,8,0,0.00
2014-6-12,66.2,63.3,60.8,66.2,61.9,57.2,100,95,88,29.99,29.82,16,8,0,0.00
2014-6-13,77.0,66.7,62.6,69.8,65.4,62.6,100,96,78,29.82,29.60,17,8,0,0.00
2014-6-14,75.2,69.6,62.6,68.0,57.2,46.4,100,68,38,29.92,29.66,28,13,0,0.00
2014-6-15,80.6,70.6,60.8,59.0,51.8,50.0,72,53,34,29.97,29.90,25,11,0,0.00
2014-6-16,80.6,72.4,64.4,62.6,57.1,51.8,88,61,37,30.04,29.93,18,5,0,0.00
2014-6-17,89.6,79.4,69.8,69.8,65.2,60.8,78,63,43,29.96,29.74,18,6,0,0.00
2014-6-18,89.6,84.7,77.0,69.8,62.2,55.4,69,48,31,29.84,29.67,30,13,0,0.00
2014-6-19,80.6,74.6,68.0,68.0,64.3,60.8,83,71,57,29.89,29.80,17,5,0,0.00
2014-6-20,80.6,74.5,66.2,66.2,45.1,35.6,78,37,21,29.89,29.75,21,10,0,0.00
2014-6-21,78.8,70.3,62.6,57.2,47.7,41.0,73,46,29,29.87,29.75,14,7,0,0.00
2014-6-22,82.4,71.5,64.4,60.8,54.9,48.2,83,58,34,29.92,29.81,15,5,0,0.00
2014-6-23,86.0,74.2,64.4,62.6,55.7,48.2,88,55,32,30.04,29.92,28,6,0,0.00
2014-6-24,80.6,74.1,68.0,62.6,60.1,55.4,73,62,47,30.04,29.89,29,11,0,0.00
2014-6-25,86.0,76.2,71.6,71.6,69.3,60.8,94,80,62,29.91,29.71,25,11,0,0.00
2014-6-26,87.8,78.8,69.8,71.6,67.4,62.6,100,70,45,29.85,29.68,18,9,0,0.00
2014-6-27,86.0,74.5,68.0,68.0,60.5,53.6,94,64,39,30.11,29.85,16,6,0,0.00
2014-6-28,89.6,77.2,68.0,59.0,54.3,42.8,73,48,20,30.15,30.07,16,5,0,0.00
2014-6-29,82.4,75.5,68.0,62.6,57.5,50.0,78,55,39,30.15,30.00,17,6,0,0.00
2014-6-30,84.2,76.5,69.8,69.8,63.5,57.2,88,65,42,30.01,29.82,23,8,0,0.00
2014-7-1,87.8,79.8,73.4,71.6,68.6,64.4,88,69,55,29.84,29.67,31,11,0,0.00
2014-7-2,89.6,80.7,73.4,75.2,71.2,66.2,100,74,55,29.83,29.68,31,10,0,0.00
2014-7-3,89.6,79.3,69.8,75.2,72.4,68.0,100,81,58,29.91,29.74,28,5,0,0.00
2014-7-4,75.2,71.2,66.2,69.8,64.2,51.8,94,80,53,29.88,29.77,29,12,0,0.00
2014-7-5,82.4,73.9,64.4,53.6,48.2,44.6,59,42,26,30.01,29.88,28,13,0,0.00
2014-7-6,86.0,77.9,68.0,62.6,53.5,50.0,65,44,30,29.98,29.78,18,8,0,0.00
2014-7-7,91.4,81.9,73.4,66.2,62.8,59.0,73,54,36,29.81,29.57,25,11,0,0.00
2014-7-8,91.4,81.6,71.6,71.6,67.6,62.6,89,64,40,29.72,29.53,26,11,0,0.00
2014-7-9,87.8,79.9,73.4,69.8,64.6,53.6,83,61,33,29.83,29.65,21,8,0,0.00
2014-7-10,84.2,77.1,71.6,64.4,61.8,57.2,78,60,42,30.01,29.82,13,4,0,0.00
2014-7-11,86.0,77.8,71.6,66.2,58.6,51.8,78,54,33,30.10,30.00,13,6,0,0.00
2014-7-12,86.0,77.3,68.0,68.0,62.4,53.6,94,63,35,30.11,30.00,23,7,0,0.00
2014-7-13,82.4,75.2,71.6,71.6,69.1,66.2,89,81,66,30.01,29.77,28,12,0,0.00
2014-7-14,87.8,77.7,71.6,75.2,71.6,69.8,100,83,58,29.83,29.69,20,5,0,0.00
2014-7-15,86.0,75.9,71.6,75.2,72.4,69.8,100,90,66,29.71,29.60,20,5,0,0.00
2014-7-16,84.2,75.3,69.8,71.6,62.2,50.0,100,67,35,29.76,29.63,15,6,0,0.00
2014-7-17,82.4,75.4,68.0,60.8,55.4,50.0,68,50,36,29.98,29.76,18,6,0,0.00
2014-7-18,84.2,75.6,68.0,59.0,52.0,42.8,73,46,25,30.11,29.98,14,5,0,0.00
2014-7-19,78.8,72.4,68.0,68.0,61.3,53.6,83,69,47,30.12,30.05,14,4,0,0.00
2014-7-20,77.0,71.5,68.0,64.4,60.7,51.8,83,69,44,30.07,29.97,20,8,0,0.00
2014-7-21,87.8,75.8,66.2,68.0,61.8,55.4,78,64,35,30.08,29.97,15,4,0,0.00
2014-7-22,89.6,79.8,71.6,68.0,64.7,60.8,69,60,46,30.05,29.91,23,8,0,0.00
2014-7-23,87.8,80.4,73.4,73.4,68.5,62.6,83,67,58,29.92,29.63,24,9,0,0.00
2014-7-24,84.2,77.4,73.4,73.4,61.6,50.0,83,60,30,29.78,29.65,20,10,0,0.00
2014-7-25,86.0,75.7,66.2,62.6,54.6,48.2,65,49,30,29.89,29.78,14,8,0,0.00
2014-7-26,82.4,76.5,71.6,69.8,62.2,53.6,83,62,42,29.88,29.76,17,7,0,0.00
2014-7-27,87.8,79.3,71.6,71.6,69.7,66.2,88,73,49,29.78,29.51,21,7,0,0.00
2014-7-28,84.2,76.6,69.8,75.2,64.7,57.2,94,69,42,29.56,29.37,31,13,0,0.00
2014-7-29,78.8,71.1,64.4,57.2,52.0,44.6,68,52,34,29.85,29.56,28,11,0,0.00
2014-7-30,82.4,73.7,64.4,60.8,52.4,41.0,68,49,26,29.92,29.84,18,6,0,0.00
2014-7-31,82.4,75.5,69.8,68.0,59.7,55.4,78,59,44,30.01,29.92,22,8,0,0.00
2014-8-1,86.0,77.2,71.6,69.8,66.5,62.6,83,70,48,30.08,30.01,17,6,0,0.00
2014-8-2,73.4,69.9,64.4,69.8,64.1,62.6,94,82,73,30.07,29.98,20,5,0,0.00
2014-8-3,78.8,71.1,66.2,68.0,64.4,60.8,94,80,57,30.01,29.90,12,3,0,0.00
2014-8-4,86.0,77.2,71.6,71.6,67.2,62.6,88,73,45,29.93,29.87,20,6,0,0.00
2014-8-5,91.4,80.7,73.4,69.8,64.7,55.4,83,60,29,29.92,29.76,15,4,0,0.00
2014-8-6,86.0,77.4,71.6,64.4,60.2,53.6,78,57,35,29.79,29.67,20,8,0,0.00
2014-8-7,84.2,75.9,68.0,59.0,52.3,46.4,64,45,27,29.89,29.75,23,10,0,0.00
2014-8-8,84.2,75.3,68.0,62.6,52.7,46.4,65,47,28,29.96,29.88,16,7,0,0.00
2014-8-9,87.8,78.2,69.8,60.8,54.6,42.8,73,47,22,29.99,29.91,15,4,0,0.00
2014-8-10,89.6,79.2,69.8,62.6,57.4,48.2,78,50,25,30.01,29.93,9,3,0,0.00
2014-8-11,86.0,78.8,71.6,68.0,60.3,50.0,88,56,29,30.01,29.96,20,6,0,0.00
2014-8-12,80.6,75.1,71.6,71.6,67.1,64.4,94,76,61,29.97,29.75,21,10,0,0.00
2014-8-13,84.2,73.7,68.0,71.6,67.1,59.0,100,82,45,29.75,29.50,26,12,0,0.00
2014-8-14,78.8,72.2,64.4,59.0,50.9,46.4,68,48,32,29.76,29.65,23,12,0,0.00
2014-8-15,73.4,68.9,64.4,53.6,48.5,42.8,60,48,40,29.86,29.75,21,10,0,0.00
2014-8-16,78.8,72.7,66.2,62.6,52.6,44.6,69,50,32,29.88,29.77,20,7,0,0.00
2014-8-17,84.2,75.6,69.8,62.6,56.0,50.0,69,51,32,29.79,29.66,22,10,0,0.00
2014-8-18,82.4,73.4,64.4,60.8,53.0,48.2,68,50,32,29.79,29.67,20,9,0,0.00
2014-8-19,84.2,72.7,64.4,66.2,59.3,53.6,83,64,39,29.82,29.73,15,6,0,0.00
2014-8-20,86.0,76.5,69.8,69.8,62.6,53.6,94,65,40,29.90,29.81,12,4,0,0.00
2014-8-21,84.2,76.2,71.6,68.0,62.0,53.6,88,63,42,29.93,29.87,17,5,0,0.00
2014-8-22,77.0,71.4,66.2,69.8,64.1,57.2,94,78,57,29.94,29.88,17,5,0,0.00
2014-8-23,77.0,71.1,68.0,62.6,60.7,55.4,83,70,50,30.00,29.92,20,5,0,0.00
2014-8-24,82.4,73.0,64.4,62.6,59.0,55.4,83,63,39,30.04,29.96,16,5,0,0.00
2014-8-25,89.6,78.4,66.2,64.4,59.2,53.6,88,55,31,30.05,29.95,9,2,0,0.00
2014-8-26,89.6,78.8,69.8,69.8,65.0,57.2,88,65,33,30.03,29.93,14,4,0,0.00
2014-8-27,91.4,80.5,71.6,66.2,63.5,59.0,78,58,38,29.96,29.72,21,7,0,0.00
2014-8-28,82.4,75.9,68.0,69.8,55.8,46.4,78,52,30,29.93,29.71,26,13,0,0.00
2014-8-29,80.6,70.9,64.4,55.4,51.0,48.2,64,50,32,30.14,29.93,17,7,0,0.00
2014-8-30,78.8,72.7,64.4,68.0,60.7,55.4,83,67,47,30.16,30.03,25,7,0,0.00
2014-8-31,89.6,78.9,73.4,77.0,70.8,66.2,100,77,55,30.03,29.80,22,7,0,0.00
2014-9-1,89.6,81.7,75.2,75.2,72.2,68.0,89,74,49,29.88,29.77,15,6,0,0.00
2014-9-2,93.2,85.8,78.8,75.2,70.2,62.6,89,62,38,29.80,29.64,22,8,0,0.00
2014-9-3,87.8,80.2,73.4,68.0,57.4,50.0,69,48,29,29.98,29.67,24,9,0,0.00
2014-9-4,87.8,78.9,69.8,66.2,59.5,51.8,69,53,29,30.07,29.97,21,6,0,0.00
2014-9-5,86.0,79.7,73.4,75.2,70.7,64.4,89,75,58,30.04,29.88,20,8,0,0.00
2014-9-6,91.4,81.5,71.6,75.2,71.8,64.4,89,73,51,29.88,29.67,20,8,0,0.00
2014-9-7,80.6,73.0,66.2,66.2,55.9,46.4,88,57,32,30.07,29.82,17,7,0,0.00
2014-9-8,78.8,70.1,64.4,62.6,55.6,48.2,78,61,44,30.19,30.07,18,8,0,0.00
2014-9-9,73.4,68.5,64.4,62.6,59.2,51.8,78,72,60,30.17,30.03,24,9,0,0.00
2014-9-10,80.6,69.9,62.6,64.4,59.3,53.6,83,70,39,30.03,29.90,16,8,0,0.00
2014-9-11,84.2,75.8,69.8,69.8,66.1,57.2,83,73,57,29.91,29.66,18,9,0,0.00
2014-9-12,78.8,69.1,62.6,57.2,51.6,46.4,68,55,34,30.08,29.82,20,10,0,0.00
2014-9-13,69.8,64.4,60.8,64.4,56.8,48.2,100,77,59,30.08,29.97,17,8,0,0.00
2014-9-14,73.4,62.4,53.6,55.4,46.0,39.2,82,57,33,30.16,30.04,16,7,0,0.00
2014-9-15,75.2,64.5,53.6,53.6,45.5,39.2,68,52,29,30.14,29.96,12,7,0,0.00
2014-9-16,73.4,65.4,59.0,62.6,56.7,51.8,94,74,56,29.96,29.82,14,5,0,0.00
2014-9-17,75.2,66.6,57.2,55.4,48.3,37.4,88,56,29,29.94,29.80,12,3,0,0.00
2014-9-18,78.8,68.8,59.0,55.4,49.2,39.2,82,52,27,30.00,29.83,14,5,0,0.00
2014-9-19,66.2,60.8,55.4,51.8,46.2,39.2,77,59,45,30.28,30.00,20,10,0,0.00
2014-9-20,75.2,67.7,57.2,66.2,57.2,48.2,88,70,50,30.24,29.94,26,8,0,0.00
2014-9-21,73.4,71.5,68.0,71.6,68.8,62.6,100,91,78,29.94,29.72,6,2,0,0.00
2014-9-22,73.4,66.7,57.2,69.8,50.2,37.4,88,57,40,30.07,29.53,26,15,0,0.00
2014-9-23,75.2,62.9,53.6,55.4,43.7,39.2,68,51,31,30.30,30.06,15,6,0,0.00
2014-9-24,69.8,64.9,59.0,59.0,55.0,51.8,82,71,53,30.44,30.30,22,7,0,0.00
2014-9-25,64.4,62.3,60.8,59.0,56.1,53.6,88,80,68,30.36,30.10,22,12,0,0.00
2014-9-26,80.6,69.2,60.8,55.4,52.1,46.4,77,57,36,30.11,30.00,15,6,0,0.00
2014-9-27,84.2,73.6,62.6,60.8,55.5,53.6,77,55,35,30.09,29.99,14,4,0,0.00
2014-9-28,86.0,73.4,62.6,64.4,61.0,57.2,94,68,37,30.06,29.88,16,4,0,0.00
2014-9-29,82.4,73.1,68.0,64.4,60.8,50.0,88,67,35,29.88,29.76,10,1,0,0.00
2014-9-30,71.6,67.5,62.6,66.2,62.1,59.0,94,83,64,29.88,29.80,16,5,0,0.00
2014-10-1,64.4,62.9,60.8,62.6,59.7,57.2,100,89,82,29.97,29.87,17,9,0,0.00
2014-10-2,69.8,63.6,60.8,59.0,56.4,55.4,94,78,60,30.03,29.96,16,7,0,0.00
2014-10-3,69.8,62.4,57.2,57.2,53.1,50.0,88,72,49,30.01,29.75,15,6,0,0.00
2014-10-4,69.8,64.7,55.4,68.0,58.0,37.4,100,80,51,29.75,29.38,22,11,0,0.00
2014-10-5,62.6,54.3,46.4,37.4,34.3,30.2,58,48,34,29.90,29.59,22,12,0,0.00
2014-10-6,69.8,60.8,50.0,55.4,45.9,37.4,82,59,37,29.96,29.89,28,10,0,0.00
2014-10-7,73.4,68.6,66.2,62.6,56.1,48.2,83,66,41,29.95,29.81,22,14,0,0.00
2014-10-8,73.4,68.4,64.4,64.4,51.4,37.4,88,58,33,29.83,29.66,26,16,0,0.00
2014-10-9,68.0,64.5,57.2,41.0,36.9,33.8,51,37,28,29.94,29.82,26,14,0,0.00
2014-10-10,66.2,60.4,51.8,41.0,37.6,33.8,62,43,32,30.02,29.92,16,4,0,0.00
2014-10-11,60.8,54.3,51.8,51.8,48.9,41.0,94,83,48,30.06,29.94,17,7,0,0.00
2014-10-12,64.4,56.4,48.2,48.2,40.6,30.2,88,59,28,30.22,30.07,12,5,0,0.00
2014-10-13,66.2,60.5,53.6,64.4,52.9,44.6,100,77,59,30.22,30.13,15,4,0,0.00
2014-10-14,75.2,70.2,64.4,66.2,63.6,60.8,100,81,65,30.13,29.98,26,10,0,0.00
2014-10-15,78.8,73.9,69.8,69.8,67.9,64.4,94,81,69,29.99,29.73,23,14,0,0.00
2014-10-16,71.6,69.2,64.4,71.6,64.8,55.4,100,87,64,29.72,29.55,22,10,0,0.00
2014-10-17,73.4,66.5,60.8,59.0,53.8,50.0,83,65,44,29.63,29.54,20,11,0,0.00
2014-10-18,71.6,64.1,57.2,57.2,50.4,42.8,88,63,40,29.60,29.43,25,12,0,0.00
2014-10-19,57.2,52.4,44.6,44.6,33.9,24.8,63,50,35,29.97,29.60,33,20,0,0.00
2014-10-20,60.8,53.3,42.8,46.4,34.9,28.4,63,50,39,30.03,29.85,17,9,0,0.00
2014-10-21,68.0,61.2,55.4,57.2,50.5,44.6,88,69,49,29.85,29.70,15,4,0,0.00
2014-10-22,59.0,55.8,51.8,57.2,52.1,48.2,94,88,72,29.83,29.62,26,14,0,0.00
2014-10-23,53.6,52.5,50.0,48.2,47.8,46.4,88,84,77,29.68,29.58,30,17,0,0.00
2014-10-24,62.6,55.9,51.8,48.2,45.5,42.8,82,69,55,29.73,29.65,25,10,0,0.00
2014-10-25,69.8,60.3,51.8,48.2,41.0,35.6,58,50,35,29.77,29.44,22,10,0,0.00
2014-10-26,64.4,58.6,53.6,50.0,38.2,32.0,72,47,34,29.72,29.43,31,16,0,0.00
2014-10-27,66.2,57.9,51.8,44.6,37.2,32.0,59,47,30,29.92,29.72,24,11,0,0.00
2014-10-28,73.4,62.8,53.6,59.0,49.6,41.0,83,63,41,29.94,29.80,13,6,0,0.00
2014-10-29,73.4,63.4,53.6,60.8,52.7,39.2,83,70,35,29.84,29.69,22,9,0,0.00
2014-10-30,59.0,53.9,50.0,48.2,40.0,33.8,88,62,39,29.92,29.83,24,11,0,0.00
2014-10-31,55.4,50.5,44.6,48.2,38.5,32.0,88,64,51,29.93,29.77,23,8,0,0.00
2014-11-1,48.2,46.2,42.8,44.6,39.1,35.6,87,76,66,29.77,29.67,25,15,0,0.00
2014-11-2,48.2,44.4,41.0,37.4,25.6,15.8,81,50,31,29.96,29.66,36,24,0,0.00
2014-11-3,62.6,51.4,41.0,28.4,24.0,14.0,57,37,15,30.04,29.94,33,14,0,0.00
2014-11-4,69.8,61.9,55.4,42.8,29.5,19.4,51,30,22,30.04,29.91,17,9,0,0.00
2014-11-5,64.4,61.0,57.2,44.6,37.7,24.8,63,43,24,30.03,29.89,18,8,0,0.00
2014-11-6,59.0,51.7,48.2,53.6,48.0,33.8,100,89,41,30.02,29.49,14,6,0,0.00
2014-11-7,53.6,47.7,41.0,46.4,35.3,24.8,87,63,47,29.85,29.46,34,20,0,0.00
2014-11-8,48.2,44.7,37.4,33.8,27.4,23.0,61,51,40,29.96,29.82,21,11,0,0.00
2014-11-9,57.2,51.3,46.4,37.4,34.7,30.2,66,54,36,29.92,29.78,18,6,0,0.00
2014-11-10,62.6,53.2,42.8,44.6,37.5,30.2,87,59,31,30.08,29.93,17,4,0,0.00
2014-11-11,66.2,57.3,48.2,59.0,52.4,44.6,100,84,59,30.06,29.80,20,5,0,0.00
2014-11-12,66.2,57.8,46.4,62.6,51.3,33.8,100,81,48,29.99,29.74,23,7,0,0.00
2014-11-13,50.0,44.1,37.4,37.4,29.8,24.8,93,59,40,30.04,29.89,15,7,0,0.00
2014-11-14,42.8,38.9,35.6,35.6,23.8,12.2,93,59,29,30.10,29.87,28,15,0,0.00
2014-11-15,37.4,37.4,37.4,19.4,18.7,17.6,48,47,45,30.11,30.10,12,10,0,0.00
2014-11-16,44.6,41.8,35.6,33.8,25.5,19.4,70,53,42,30.31,30.03,18,8,0,0.00
2014-11-17,53.6,45.1,39.2,51.8,43.2,33.8,100,94,66,30.02,29.41,24,6,0,0.00
2014-11-18,46.4,32.1,24.8,37.4,9.0,-0.4,71,39,25,30.04,29.50,34,22,0,0.00
2014-11-19,35.6,28.9,23.0,19.4,8.0,1.4,52,42,32,30.20,29.99,25,16,0,0.00
2014-11-20,46.4,40.4,32.0,24.8,18.2,6.8,52,41,29,29.99,29.74,31,17,0,0.00
2014-11-21,37.4,32.0,28.4,12.2,8.7,5.0,47,38,28,30.43,29.96,33,16,0,0.00
2014-11-22,44.6,37.3,28.4,21.2,14.8,8.6,51,40,33,30.43,30.10,24,13,0,0.00
2014-11-23,57.2,49.2,44.6,46.4,29.4,19.4,87,49,29,30.11,29.91,20,8,0,0.00
2014-11-24,68.0,61.8,50.0,62.6,58.4,46.4,100,89,73,29.88,29.45,41,16,0,0.00
2014-11-25,68.0,58.3,51.8,59.0,36.0,23.0,78,45,29,30.07,29.61,28,13,0,0.00
2014-11-26,51.8,50.2,50.0,28.4,28.3,26.6,43,43,40,30.11,30.02,16,15,0,0.00
2014-11-27,50.0,37.3,35.6,35.6,31.3,26.6,93,80,43,30.02,29.81,21,11,0,0.00
2014-11-28,37.4,33.2,28.4,26.6,18.4,10.4,75,55,41,30.21,29.97,32,15,0,0.00
2014-11-29,44.6,34.0,28.4,33.8,16.9,10.4,70,50,38,30.29,30.12,14,6,0,0.00
2014-11-30,55.4,50.3,44.6,42.8,36.4,32.0,71,59,47,30.12,29.97,18,8,0,0.00
2014-12-1,64.4,54.9,41.0,48.2,42.2,26.6,81,63,52,30.37,29.96,29,12,0,0.00
2014-12-2,42.8,39.2,35.6,42.8,29.0,17.6,100,69,45,30.56,30.22,18,12,0,0.00
2014-12-3,48.2,44.8,41.0,46.4,40.9,26.6,100,87,53,30.21,29.87,26,12,0,0.00
2014-12-4,42.8,39.4,39.2,26.6,23.1,21.2,53,52,45,30.18,30.11,22,10,0,0.00
2014-12-5,46.4,39.8,33.8,46.4,32.3,21.2,100,76,52,30.51,30.18,21,9,0,0.00
2014-12-6,50.0,45.5,41.0,48.2,44.8,37.4,100,97,87,30.25,30.00,22,6,0,0.00
2014-12-7,42.8,37.6,30.2,37.4,16.8,-5.8,87,47,21,30.55,30.11,29,18,0,0.00
2014-12-8,37.4,29.8,24.8,33.8,18.1,-5.8,87,64,23,30.62,30.27,24,14,0,0.00
2014-12-9,44.6,42.1,37.4,42.8,40.2,33.8,100,93,87,30.27,29.61,36,22,0,0.00
2014-12-10,44.6,39.1,32.0,42.8,35.8,24.8,100,88,70,29.62,29.49,31,21,0,0.00
2014-12-11,37.4,35.0,32.0,30.2,24.1,19.4,93,66,48,29.79,29.51,28,16,0,0.00
2014-12-12,37.4,35.0,32.0,24.8,22.2,19.4,65,60,56,29.91,29.79,30,17,0,0.00
2014-12-13,44.6,40.7,35.6,26.6,25.1,21.2,70,55,42,29.90,29.80,32,15,0,0.00
2014-12-14,46.4,41.8,37.4,32.0,30.5,24.8,75,65,46,29.89,29.77,23,11,0,0.00
2014-12-15,50.0,41.7,37.4,37.4,31.6,28.4,87,68,50,30.04,29.89,16,4,0,0.00
2014-12-16,44.6,41.5,35.6,44.6,38.6,32.0,100,90,81,30.03,29.75,15,5,0,0.00
2014-12-17,53.6,47.6,42.8,46.4,40.1,28.4,100,77,54,29.80,29.69,29,12,0,0.00
2014-12-18,42.8,40.5,39.2,28.4,25.1,23.0,65,55,49,29.90,29.78,31,19,0,0.00
2014-12-19,39.2,36.2,32.0,28.4,22.0,19.4,65,57,48,30.12,29.88,28,16,0,0.00
2014-12-20,33.8,32.4,30.2,24.8,21.4,19.4,70,64,60,30.24,30.11,15,7,0,0.00
2014-12-21,35.6,34.0,32.0,32.0,28.3,23.0,93,80,65,30.26,30.19,17,8,0,0.00
2014-12-22,44.6,40.1,35.6,44.6,37.5,32.0,100,90,87,30.25,30.07,20,9,0,0.00
2014-12-23,46.4,44.6,42.8,46.4,44.6,42.8,100,100,100,30.08,29.98,17,10,0,0.00
2014-12-24,57.2,46.7,42.8,57.2,46.7,42.8,100,100,100,30.01,29.43,18,8,0,0.00
2014-12-25,60.8,52.0,46.4,60.8,37.3,26.6,100,61,38,30.03,29.38,34,16,0,0.00
2014-12-26,46.4,44.8,41.0,32.0,29.1,28.4,66,55,50,30.16,30.03,20,16,0,0.00
2014-12-27,57.2,48.8,42.8,39.2,33.8,28.4,76,57,41,30.17,29.98,20,6,0,0.00
2014-12-28,53.6,48.2,42.8,44.6,39.1,28.4,93,71,57,29.99,29.76,24,10,0,0.00
2014-12-29,42.8,39.1,35.6,28.4,22.5,17.6,57,51,42,30.19,29.98,22,12,0,0.00
2014-12-30,35.6,31.0,28.4,21.2,13.5,6.8,60,49,37,30.33,30.19,21,9,0,0.00
2014-12-31,33.8,30.1,26.6,15.8,9.1,5.0,59,42,32,30.30,30.11,24,12,0,0.00
2015-1-1,39.2,33.8,28.4,21.2,11.1,5.0,49,39,30,30.11,29.89,29,17,0,0.00
2015-1-2,42.8,39.7,35.6,23.0,18.0,15.8,56,42,34,30.38,29.93,31,16,0,0.00